Terminal Aerodrome Forecast
Issued by NWS

Home | Current Version | Previous Version | Graphics & Text | Print | Product List | Glossary On
Versions: 1 2 3 4 5 6 7 8 9 10 11 12
000
FTUS43 KGRB 010525
TAFMTW
TAF
KMTW 010525Z 0106/0206 02004KT P6SM BKN250
     FM011600 07009G15KT P6SM SKC
     FM012300 05003KT P6SM SKC=

USA.gov is the U.S. government's official web portal to all federal, state and local government web resources and services.